Palmares, Brazil
Current Conditions -  °F | °C
As of 2:00 PM on Thursday 18 Dec 2014 (Local Time) from SBRF Reporting Station
Scattered Clouds Scattered Clouds  
Wind Chill: 84°   Ceiling: Unl
Heat Index: 90°   Visibility: 6mi
Dew Point: 72°   Wind: 7mph
Humidity: 66%   Direction: 40°NE
Pressure: 29.85"   Gusts: NA
Location:  8.66°S, 35.59°W
Report Text: SBRF 181700Z 04006KT 9999 FEW025 SCT100 29/22 Q1011
Loading
Personal Weather Stations






























Interactive Weather Map New forecast layout! Learn more

10-Day Weather Forecast

Advertisements
Track Severe Weather on mobile